sensor_id;sensor_type;location;lat;lon;timestamp;temperature;humidity
24085;DHT22;12268;52.110;5.548;2023-10-09T00:01:26;18.40;99.90
24085;DHT22;12268;52.110;5.548;2023-10-09T00:03:52;18.30;99.90
24085;DHT22;12268;52.110;5.548;2023-10-09T00:06:21;18.40;99.90
24085;DHT22;12268;52.110;5.548;2023-10-09T00:08:55;18.50;99.90
24085;DHT22;12268;52.110;5.548;2023-10-09T00:11:22;18.70;99.90
24085;DHT22;12268;52.110;5.548;2023-10-09T00:13:52;18.70;99.90
24085;DHT22;12268;52.110;5.548;2023-10-09T00:16:23;18.80;99.90
24085;DHT22;12268;52.110;5.548;2023-10-09T00:18:59;18.70;99.90
24085;DHT22;12268;52.110;5.548;2023-10-09T00:21:40;18.60;99.90
24085;DHT22;12268;52.110;5.548;2023-10-09T00:24:05;18.70;99.90
24085;DHT22;12268;52.110;5.548;2023-10-09T00:26:44;18.80;99.90
24085;DHT22;12268;52.110;5.548;2023-10-09T00:29:13;18.70;99.90
24085;DHT22;12268;52.110;5.548;2023-10-09T00:31:54;18.70;99.90
24085;DHT22;12268;52.110;5.548;2023-10-09T00:34:41;18.80;99.90
24085;DHT22;12268;52.110;5.548;2023-10-09T00:37:10;18.80;99.90
24085;DHT22;12268;52.110;5.548;2023-10-09T00:39:42;18.90;99.90
24085;DHT22;12268;52.110;5.548;2023-10-09T00:42:14;19.00;99.90
24085;DHT22;12268;52.110;5.548;2023-10-09T00:44:43;18.90;99.90
24085;DHT22;12268;52.110;5.548;2023-10-09T00:47:12;19.10;99.90
24085;DHT22;12268;52.110;5.548;2023-10-09T00:49:57;19.00;99.90
24085;DHT22;12268;52.110;5.548;2023-10-09T00:52:33;19.00;99.90
24085;DHT22;12268;52.110;5.548;2023-10-09T00:55:09;19.00;99.90
24085;DHT22;12268;52.110;5.548;2023-10-09T00:57:41;19.10;99.90
24085;DHT22;12268;52.110;5.548;2023-10-09T01:00:08;19.10;99.90
24085;DHT22;12268;52.110;5.548;2023-10-09T01:03:01;19.20;99.90
24085;DHT22;12268;52.110;5.548;2023-10-09T01:05:48;19.10;99.90
24085;DHT22;12268;52.110;5.548;2023-10-09T01:08:24;19.10;99.90
24085;DHT22;12268;52.110;5.548;2023-10-09T01:10:54;19.20;99.90
24085;DHT22;12268;52.110;5.548;2023-10-09T01:13:34;19.30;99.90
24085;DHT22;12268;52.110;5.548;2023-10-09T01:16:12;19.30;99.90
24085;DHT22;12268;52.110;5.548;2023-10-09T01:18:46;19.20;99.90
24085;DHT22;12268;52.110;5.548;2023-10-09T01:21:15;19.20;99.90
24085;DHT22;12268;52.110;5.548;2023-10-09T01:23:41;19.10;99.90
24085;DHT22;12268;52.110;5.548;2023-10-09T01:26:38;19.10;99.90
24085;DHT22;12268;52.110;5.548;2023-10-09T01:31:56;19.20;99.90
24085;DHT22;12268;52.110;5.548;2023-10-09T01:34:30;19.10;99.90
24085;DHT22;12268;52.110;5.548;2023-10-09T01:39:50;19.20;99.90
24085;DHT22;12268;52.110;5.548;2023-10-09T01:42:16;19.30;99.90
24085;DHT22;12268;52.110;5.548;2023-10-09T01:45:01;19.30;99.90
24085;DHT22;12268;52.110;5.548;2023-10-09T01:47:47;19.50;99.90
24085;DHT22;12268;52.110;5.548;2023-10-09T01:50:20;19.30;99.90
24085;DHT22;12268;52.110;5.548;2023-10-09T01:53:00;19.40;99.90
24085;DHT22;12268;52.110;5.548;2023-10-09T01:55:31;19.10;99.90
24085;DHT22;12268;52.110;5.548;2023-10-09T01:58:05;19.10;99.90
24085;DHT22;12268;52.110;5.548;2023-10-09T02:00:32;19.20;99.90
24085;DHT22;12268;52.110;5.548;2023-10-09T02:03:08;19.10;99.90
24085;DHT22;12268;52.110;5.548;2023-10-09T02:05:38;19.30;99.90
24085;DHT22;12268;52.110;5.548;2023-10-09T02:08:04;19.10;99.90
24085;DHT22;12268;52.110;5.548;2023-10-09T02:10:31;19.10;99.90
24085;DHT22;12268;52.110;5.548;2023-10-09T02:13:06;19.10;99.90
24085;DHT22;12268;52.110;5.548;2023-10-09T02:15:36;19.20;99.90
24085;DHT22;12268;52.110;5.548;2023-10-09T02:18:09;19.30;99.90
24085;DHT22;12268;52.110;5.548;2023-10-09T02:20:44;19.30;99.90
24085;DHT22;12268;52.110;5.548;2023-10-09T02:23:11;19.10;99.90
24085;DHT22;12268;52.110;5.548;2023-10-09T02:25:40;19.10;99.90
24085;DHT22;12268;52.110;5.548;2023-10-09T02:28:09;19.10;99.90
24085;DHT22;12268;52.110;5.548;2023-10-09T02:30:43;19.20;99.90
24085;DHT22;12268;52.110;5.548;2023-10-09T02:33:10;19.30;99.90
24085;DHT22;12268;52.110;5.548;2023-10-09T02:35:36;19.40;99.90
24085;DHT22;12268;52.110;5.548;2023-10-09T02:38:04;19.30;99.90
24085;DHT22;12268;52.110;5.548;2023-10-09T02:40:33;19.30;99.90
24085;DHT22;12268;52.110;5.548;2023-10-09T02:43:07;19.30;99.90
24085;DHT22;12268;52.110;5.548;2023-10-09T02:45:37;19.20;99.90
24085;DHT22;12268;52.110;5.548;2023-10-09T02:48:16;19.20;99.90
24085;DHT22;12268;52.110;5.548;2023-10-09T02:50:44;19.40;99.90
24085;DHT22;12268;52.110;5.548;2023-10-09T02:53:10;19.30;99.90
24085;DHT22;12268;52.110;5.548;2023-10-09T02:55:44;19.50;99.90
24085;DHT22;12268;52.110;5.548;2023-10-09T02:58:18;19.40;99.90
24085;DHT22;12268;52.110;5.548;2023-10-09T03:00:46;19.20;99.90
24085;DHT22;12268;52.110;5.548;2023-10-09T03:03:13;19.50;99.90
24085;DHT22;12268;52.110;5.548;2023-10-09T03:05:42;19.50;99.90
24085;DHT22;12268;52.110;5.548;2023-10-09T03:08:09;19.40;99.90
24085;DHT22;12268;52.110;5.548;2023-10-09T03:10:38;19.50;99.90
24085;DHT22;12268;52.110;5.548;2023-10-09T03:13:04;19.40;99.90
24085;DHT22;12268;52.110;5.548;2023-10-09T03:15:31;19.50;99.90
24085;DHT22;12268;52.110;5.548;2023-10-09T03:18:04;19.40;99.90
24085;DHT22;12268;52.110;5.548;2023-10-09T03:20:30;19.40;99.90
24085;DHT22;12268;52.110;5.548;2023-10-09T03:22:56;19.50;99.90
24085;DHT22;12268;52.110;5.548;2023-10-09T03:25:22;19.50;99.90
24085;DHT22;12268;52.110;5.548;2023-10-09T03:27:50;19.70;99.90
24085;DHT22;12268;52.110;5.548;2023-10-09T03:30:17;19.60;99.90
24085;DHT22;12268;52.110;5.548;2023-10-09T03:32:49;19.70;99.90
24085;DHT22;12268;52.110;5.548;2023-10-09T03:35:22;20.00;99.90
24085;DHT22;12268;52.110;5.548;2023-10-09T03:37:59;19.70;99.90
24085;DHT22;12268;52.110;5.548;2023-10-09T03:40:41;19.60;99.90
24085;DHT22;12268;52.110;5.548;2023-10-09T03:43:08;19.80;99.90
24085;DHT22;12268;52.110;5.548;2023-10-09T03:45:36;19.90;99.90
24085;DHT22;12268;52.110;5.548;2023-10-09T03:48:04;19.70;99.90
24085;DHT22;12268;52.110;5.548;2023-10-09T03:50:40;19.70;99.90
24085;DHT22;12268;52.110;5.548;2023-10-09T03:53:08;19.90;99.90
24085;DHT22;12268;52.110;5.548;2023-10-09T03:55:36;20.00;99.90
24085;DHT22;12268;52.110;5.548;2023-10-09T03:58:08;19.80;99.90
24085;DHT22;12268;52.110;5.548;2023-10-09T04:00:37;19.90;99.90
24085;DHT22;12268;52.110;5.548;2023-10-09T04:03:15;20.00;99.90
24085;DHT22;12268;52.110;5.548;2023-10-09T04:05:41;20.20;99.90
24085;DHT22;12268;52.110;5.548;2023-10-09T04:08:12;20.10;99.90
24085;DHT22;12268;52.110;5.548;2023-10-09T04:10:39;20.20;99.90
24085;DHT22;12268;52.110;5.548;2023-10-09T04:13:17;19.90;99.90
24085;DHT22;12268;52.110;5.548;2023-10-09T04:15:50;20.00;99.90
24085;DHT22;12268;52.110;5.548;2023-10-09T04:18:19;20.00;99.90
24085;DHT22;12268;52.110;5.548;2023-10-09T04:20:45;19.90;99.90
24085;DHT22;12268;52.110;5.548;2023-10-09T04:23:33;19.70;99.90
24085;DHT22;12268;52.110;5.548;2023-10-09T04:26:19;19.80;99.90
24085;DHT22;12268;52.110;5.548;2023-10-09T04:28:46;19.80;99.90
24085;DHT22;12268;52.110;5.548;2023-10-09T04:31:16;19.90;99.90
24085;DHT22;12268;52.110;5.548;2023-10-09T04:33:46;20.00;99.90
24085;DHT22;12268;52.110;5.548;2023-10-09T04:36:11;20.00;99.90
24085;DHT22;12268;52.110;5.548;2023-10-09T04:38:42;19.90;99.90
24085;DHT22;12268;52.110;5.548;2023-10-09T04:41:26;20.00;99.90
24085;DHT22;12268;52.110;5.548;2023-10-09T04:43:59;20.00;99.90
24085;DHT22;12268;52.110;5.548;2023-10-09T04:46:43;19.80;99.90
24085;DHT22;12268;52.110;5.548;2023-10-09T04:49:12;19.90;99.90
24085;DHT22;12268;52.110;5.548;2023-10-09T04:51:53;20.00;99.90
24085;DHT22;12268;52.110;5.548;2023-10-09T04:54:34;19.90;99.90
24085;DHT22;12268;52.110;5.548;2023-10-09T04:57:26;19.80;99.90
24085;DHT22;12268;52.110;5.548;2023-10-09T04:59:52;20.00;99.90
24085;DHT22;12268;52.110;5.548;2023-10-09T05:02:19;19.80;99.90
24085;DHT22;12268;52.110;5.548;2023-10-09T05:04:48;19.80;99.90
24085;DHT22;12268;52.110;5.548;2023-10-09T05:07:26;19.80;99.90
24085;DHT22;12268;52.110;5.548;2023-10-09T05:10:12;20.00;99.90
24085;DHT22;12268;52.110;5.548;2023-10-09T05:12:43;19.90;99.90
24085;DHT22;12268;52.110;5.548;2023-10-09T05:15:24;20.00;99.90
24085;DHT22;12268;52.110;5.548;2023-10-09T05:17:59;20.00;99.90
24085;DHT22;12268;52.110;5.548;2023-10-09T05:20:34;19.80;99.90
24085;DHT22;12268;52.110;5.548;2023-10-09T05:23:21;19.90;99.90
24085;DHT22;12268;52.110;5.548;2023-10-09T05:25:49;19.90;99.90
24085;DHT22;12268;52.110;5.548;2023-10-09T05:28:24;20.10;99.90
24085;DHT22;12268;52.110;5.548;2023-10-09T05:31:14;20.20;99.90
24085;DHT22;12268;52.110;5.548;2023-10-09T05:34:00;20.30;99.90
24085;DHT22;12268;52.110;5.548;2023-10-09T05:36:27;20.40;99.90
24085;DHT22;12268;52.110;5.548;2023-10-09T05:38:53;20.60;99.90
24085;DHT22;12268;52.110;5.548;2023-10-09T05:41:25;20.70;99.90
24085;DHT22;12268;52.110;5.548;2023-10-09T05:44:12;20.70;99.90
24085;DHT22;12268;52.110;5.548;2023-10-09T05:46:56;20.60;99.90
24085;DHT22;12268;52.110;5.548;2023-10-09T05:49:40;20.80;99.90
24085;DHT22;12268;52.110;5.548;2023-10-09T05:52:14;20.80;99.90
24085;DHT22;12268;52.110;5.548;2023-10-09T05:55:09;20.90;99.90
24085;DHT22;12268;52.110;5.548;2023-10-09T05:57:54;20.90;99.90
24085;DHT22;12268;52.110;5.548;2023-10-09T06:00:38;20.90;99.90
24085;DHT22;12268;52.110;5.548;2023-10-09T06:03:22;21.00;99.90
24085;DHT22;12268;52.110;5.548;2023-10-09T06:05:53;20.90;99.90
24085;DHT22;12268;52.110;5.548;2023-10-09T06:08:20;20.90;99.90
24085;DHT22;12268;52.110;5.548;2023-10-09T06:11:04;20.80;99.90
24085;DHT22;12268;52.110;5.548;2023-10-09T06:13:49;20.80;99.90
24085;DHT22;12268;52.110;5.548;2023-10-09T06:16:27;20.80;99.90
24085;DHT22;12268;52.110;5.548;2023-10-09T06:19:10;20.60;99.90
24085;DHT22;12268;52.110;5.548;2023-10-09T06:21:51;20.40;99.90
24085;DHT22;12268;52.110;5.548;2023-10-09T06:24:30;20.60;99.90
24085;DHT22;12268;52.110;5.548;2023-10-09T06:27:08;20.70;99.90
24085;DHT22;12268;52.110;5.548;2023-10-09T06:29:40;20.80;99.90
24085;DHT22;12268;52.110;5.548;2023-10-09T06:32:10;21.00;99.90
24085;DHT22;12268;52.110;5.548;2023-10-09T06:34:53;21.10;99.90
24085;DHT22;12268;52.110;5.548;2023-10-09T06:37:22;21.00;99.90
24085;DHT22;12268;52.110;5.548;2023-10-09T06:39:51;20.90;99.90
24085;DHT22;12268;52.110;5.548;2023-10-09T06:42:23;20.90;99.90
24085;DHT22;12268;52.110;5.548;2023-10-09T06:45:07;21.00;99.90
24085;DHT22;12268;52.110;5.548;2023-10-09T06:47:35;21.00;99.90
24085;DHT22;12268;52.110;5.548;2023-10-09T06:50:10;21.10;99.90
24085;DHT22;12268;52.110;5.548;2023-10-09T06:53:02;21.00;99.90
24085;DHT22;12268;52.110;5.548;2023-10-09T06:55:40;21.00;99.90
24085;DHT22;12268;52.110;5.548;2023-10-09T06:58:17;21.10;99.90
24085;DHT22;12268;52.110;5.548;2023-10-09T07:00:52;21.00;99.90
24085;DHT22;12268;52.110;5.548;2023-10-09T07:03:27;20.90;99.90
24085;DHT22;12268;52.110;5.548;2023-10-09T07:06:08;21.10;99.90
24085;DHT22;12268;52.110;5.548;2023-10-09T07:08:58;21.00;99.90
24085;DHT22;12268;52.110;5.548;2023-10-09T07:11:32;21.10;99.90
24085;DHT22;12268;52.110;5.548;2023-10-09T07:14:17;21.20;99.90
24085;DHT22;12268;52.110;5.548;2023-10-09T07:17:18;21.20;99.90
24085;DHT22;12268;52.110;5.548;2023-10-09T07:19:58;21.10;99.90
24085;DHT22;12268;52.110;5.548;2023-10-09T07:22:35;21.10;99.90
24085;DHT22;12268;52.110;5.548;2023-10-09T07:25:05;21.00;99.90
24085;DHT22;12268;52.110;5.548;2023-10-09T07:27:53;21.20;99.90
24085;DHT22;12268;52.110;5.548;2023-10-09T07:30:21;21.00;99.90
24085;DHT22;12268;52.110;5.548;2023-10-09T07:32:56;21.00;99.90
24085;DHT22;12268;52.110;5.548;2023-10-09T07:35:44;20.80;99.90
24085;DHT22;12268;52.110;5.548;2023-10-09T07:38:16;20.70;99.90
24085;DHT22;12268;52.110;5.548;2023-10-09T07:40:48;20.60;99.90
24085;DHT22;12268;52.110;5.548;2023-10-09T07:43:32;20.90;99.90
24085;DHT22;12268;52.110;5.548;2023-10-09T07:46:11;20.90;99.90
24085;DHT22;12268;52.110;5.548;2023-10-09T07:48:56;21.00;99.90
24085;DHT22;12268;52.110;5.548;2023-10-09T07:51:24;21.30;99.90
24085;DHT22;12268;52.110;5.548;2023-10-09T07:53:57;21.60;99.90
24085;DHT22;12268;52.110;5.548;2023-10-09T07:56:26;21.80;99.90
24085;DHT22;12268;52.110;5.548;2023-10-09T07:58:56;21.90;99.90
24085;DHT22;12268;52.110;5.548;2023-10-09T08:01:26;22.10;99.90
24085;DHT22;12268;52.110;5.548;2023-10-09T08:03:54;22.20;99.90
24085;DHT22;12268;52.110;5.548;2023-10-09T08:06:26;22.40;99.90
24085;DHT22;12268;52.110;5.548;2023-10-09T08:09:04;22.40;99.90
24085;DHT22;12268;52.110;5.548;2023-10-09T08:11:40;22.30;99.90
24085;DHT22;12268;52.110;5.548;2023-10-09T08:14:09;22.30;99.90
24085;DHT22;12268;52.110;5.548;2023-10-09T08:16:54;22.30;99.90
24085;DHT22;12268;52.110;5.548;2023-10-09T08:19:48;22.10;99.90
24085;DHT22;12268;52.110;5.548;2023-10-09T08:22:24;22.40;99.90
24085;DHT22;12268;52.110;5.548;2023-10-09T08:24:50;22.20;99.90
24085;DHT22;12268;52.110;5.548;2023-10-09T08:27:26;21.90;99.90
24085;DHT22;12268;52.110;5.548;2023-10-09T08:30:03;21.90;99.90
24085;DHT22;12268;52.110;5.548;2023-10-09T08:32:54;21.80;99.90
24085;DHT22;12268;52.110;5.548;2023-10-09T08:35:36;21.80;99.90
24085;DHT22;12268;52.110;5.548;2023-10-09T08:38:14;21.90;99.90
24085;DHT22;12268;52.110;5.548;2023-10-09T08:40:43;22.10;99.90
24085;DHT22;12268;52.110;5.548;2023-10-09T08:43:16;22.30;99.90
24085;DHT22;12268;52.110;5.548;2023-10-09T08:45:53;22.40;99.90
24085;DHT22;12268;52.110;5.548;2023-10-09T08:48:22;22.50;99.90
24085;DHT22;12268;52.110;5.548;2023-10-09T08:50:49;22.80;99.90
24085;DHT22;12268;52.110;5.548;2023-10-09T08:53:20;22.90;99.90
24085;DHT22;12268;52.110;5.548;2023-10-09T08:55:46;22.90;99.90
24085;DHT22;12268;52.110;5.548;2023-10-09T08:58:13;22.80;99.90
24085;DHT22;12268;52.110;5.548;2023-10-09T09:01:08;22.80;99.90
24085;DHT22;12268;52.110;5.548;2023-10-09T09:03:39;22.80;99.90
24085;DHT22;12268;52.110;5.548;2023-10-09T09:06:06;23.20;99.90
24085;DHT22;12268;52.110;5.548;2023-10-09T09:08:33;23.40;99.90
24085;DHT22;12268;52.110;5.548;2023-10-09T09:11:04;23.60;99.90
24085;DHT22;12268;52.110;5.548;2023-10-09T09:16:25;23.50;99.90
24085;DHT22;12268;52.110;5.548;2023-10-09T09:18:56;23.50;99.90
24085;DHT22;12268;52.110;5.548;2023-10-09T09:21:27;23.50;99.90
24085;DHT22;12268;52.110;5.548;2023-10-09T09:23:57;23.80;99.90
24085;DHT22;12268;52.110;5.548;2023-10-09T09:26:38;24.00;99.90
24085;DHT22;12268;52.110;5.548;2023-10-09T09:29:10;24.00;99.90
24085;DHT22;12268;52.110;5.548;2023-10-09T09:31:36;24.20;99.90
24085;DHT22;12268;52.110;5.548;2023-10-09T09:34:05;24.50;99.90
24085;DHT22;12268;52.110;5.548;2023-10-09T09:39:21;24.60;99.90
24085;DHT22;12268;52.110;5.548;2023-10-09T09:41:57;24.70;99.90
24085;DHT22;12268;52.110;5.548;2023-10-09T09:44:23;24.90;99.90
24085;DHT22;12268;52.110;5.548;2023-10-09T09:46:55;24.90;99.90
24085;DHT22;12268;52.110;5.548;2023-10-09T09:49:23;25.10;99.90
24085;DHT22;12268;52.110;5.548;2023-10-09T09:51:49;25.10;99.90
24085;DHT22;12268;52.110;5.548;2023-10-09T09:54:14;25.10;99.90
24085;DHT22;12268;52.110;5.548;2023-10-09T09:56:44;25.20;99.90
24085;DHT22;12268;52.110;5.548;2023-10-09T09:59:17;25.30;99.90
24085;DHT22;12268;52.110;5.548;2023-10-09T10:01:55;25.40;99.90
24085;DHT22;12268;52.110;5.548;2023-10-09T10:04:29;25.40;99.90
24085;DHT22;12268;52.110;5.548;2023-10-09T10:06:56;25.20;99.90
24085;DHT22;12268;52.110;5.548;2023-10-09T10:09:38;24.90;99.90
24085;DHT22;12268;52.110;5.548;2023-10-09T10:12:08;25.10;99.90
24085;DHT22;12268;52.110;5.548;2023-10-09T10:14:53;25.30;99.90
24085;DHT22;12268;52.110;5.548;2023-10-09T10:17:25;25.30;99.90
24085;DHT22;12268;52.110;5.548;2023-10-09T10:20:00;25.20;99.90
24085;DHT22;12268;52.110;5.548;2023-10-09T10:22:30;25.20;99.90
24085;DHT22;12268;52.110;5.548;2023-10-09T10:24:56;25.20;99.90
24085;DHT22;12268;52.110;5.548;2023-10-09T10:27:28;25.20;99.90
24085;DHT22;12268;52.110;5.548;2023-10-09T10:32:55;25.40;99.90
24085;DHT22;12268;52.110;5.548;2023-10-09T10:35:24;25.30;99.90
24085;DHT22;12268;52.110;5.548;2023-10-09T10:38:27;25.60;99.90
24085;DHT22;12268;52.110;5.548;2023-10-09T10:41:14;25.60;99.90
24085;DHT22;12268;52.110;5.548;2023-10-09T10:43:46;25.60;99.90
24085;DHT22;12268;52.110;5.548;2023-10-09T10:46:19;25.60;99.90
24085;DHT22;12268;52.110;5.548;2023-10-09T10:49:07;25.80;99.90
24085;DHT22;12268;52.110;5.548;2023-10-09T10:51:43;25.90;99.90
24085;DHT22;12268;52.110;5.548;2023-10-09T10:54:21;25.70;99.90
24085;DHT22;12268;52.110;5.548;2023-10-09T10:57:00;26.10;99.90
24085;DHT22;12268;52.110;5.548;2023-10-09T10:59:30;26.40;99.90
24085;DHT22;12268;52.110;5.548;2023-10-09T11:02:03;26.50;99.90
24085;DHT22;12268;52.110;5.548;2023-10-09T11:04:35;26.70;99.90
24085;DHT22;12268;52.110;5.548;2023-10-09T11:07:05;26.60;99.90
24085;DHT22;12268;52.110;5.548;2023-10-09T11:09:48;26.50;99.90
24085;DHT22;12268;52.110;5.548;2023-10-09T11:15:09;26.70;99.90
24085;DHT22;12268;52.110;5.548;2023-10-09T11:17:59;26.80;99.90
24085;DHT22;12268;52.110;5.548;2023-10-09T11:20:34;26.90;99.90
24085;DHT22;12268;52.110;5.548;2023-10-09T11:23:01;27.00;99.90
24085;DHT22;12268;52.110;5.548;2023-10-09T11:25:37;27.20;99.90
24085;DHT22;12268;52.110;5.548;2023-10-09T11:28:31;27.40;99.90
24085;DHT22;12268;52.110;5.548;2023-10-09T11:31:13;27.60;99.90
24085;DHT22;12268;52.110;5.548;2023-10-09T11:33:51;26.80;99.90
24085;DHT22;12268;52.110;5.548;2023-10-09T11:36:18;27.00;99.90
24085;DHT22;12268;52.110;5.548;2023-10-09T11:38:54;27.30;99.90
24085;DHT22;12268;52.110;5.548;2023-10-09T11:41:40;27.60;99.90
24085;DHT22;12268;52.110;5.548;2023-10-09T11:44:06;27.30;99.90
24085;DHT22;12268;52.110;5.548;2023-10-09T11:46:32;27.30;99.90
24085;DHT22;12268;52.110;5.548;2023-10-09T11:49:13;27.30;99.90
24085;DHT22;12268;52.110;5.548;2023-10-09T11:51:45;27.30;99.90
24085;DHT22;12268;52.110;5.548;2023-10-09T11:54:31;27.40;99.90
24085;DHT22;12268;52.110;5.548;2023-10-09T11:56:58;27.20;99.90
24085;DHT22;12268;52.110;5.548;2023-10-09T11:59:27;27.00;99.90
24085;DHT22;12268;52.110;5.548;2023-10-09T12:01:53;26.90;99.90
24085;DHT22;12268;52.110;5.548;2023-10-09T12:04:20;26.90;99.90
24085;DHT22;12268;52.110;5.548;2023-10-09T12:06:45;27.00;99.90
24085;DHT22;12268;52.110;5.548;2023-10-09T12:09:11;26.70;99.90
24085;DHT22;12268;52.110;5.548;2023-10-09T12:11:49;26.30;99.90
24085;DHT22;12268;52.110;5.548;2023-10-09T12:14:18;26.20;99.90
24085;DHT22;12268;52.110;5.548;2023-10-09T12:16:49;26.10;99.90
24085;DHT22;12268;52.110;5.548;2023-10-09T12:19:15;26.10;99.90
24085;DHT22;12268;52.110;5.548;2023-10-09T12:21:41;26.10;99.90
24085;DHT22;12268;52.110;5.548;2023-10-09T12:24:08;26.00;99.90
24085;DHT22;12268;52.110;5.548;2023-10-09T12:26:37;25.90;99.90
24085;DHT22;12268;52.110;5.548;2023-10-09T12:29:05;26.10;99.90
24085;DHT22;12268;52.110;5.548;2023-10-09T12:31:36;26.00;99.90
24085;DHT22;12268;52.110;5.548;2023-10-09T12:34:02;26.10;99.90
24085;DHT22;12268;52.110;5.548;2023-10-09T12:36:28;26.10;99.90
24085;DHT22;12268;52.110;5.548;2023-10-09T12:38:53;25.90;99.90
24085;DHT22;12268;52.110;5.548;2023-10-09T12:41:24;25.90;99.90
24085;DHT22;12268;52.110;5.548;2023-10-09T12:43:54;25.90;99.90
24085;DHT22;12268;52.110;5.548;2023-10-09T12:46:21;25.90;99.90
24085;DHT22;12268;52.110;5.548;2023-10-09T12:48:51;26.00;99.90
24085;DHT22;12268;52.110;5.548;2023-10-09T12:51:20;26.00;99.90
24085;DHT22;12268;52.110;5.548;2023-10-09T12:53:46;25.60;99.90
24085;DHT22;12268;52.110;5.548;2023-10-09T12:56:14;25.70;99.90
24085;DHT22;12268;52.110;5.548;2023-10-09T12:58:43;25.60;99.90
24085;DHT22;12268;52.110;5.548;2023-10-09T13:01:18;25.60;99.90
24085;DHT22;12268;52.110;5.548;2023-10-09T13:03:45;25.70;99.90
24085;DHT22;12268;52.110;5.548;2023-10-09T13:06:14;25.70;99.90
24085;DHT22;12268;52.110;5.548;2023-10-09T13:08:41;25.80;99.90
24085;DHT22;12268;52.110;5.548;2023-10-09T13:11:09;25.80;99.90
24085;DHT22;12268;52.110;5.548;2023-10-09T13:13:42;25.70;99.90
24085;DHT22;12268;52.110;5.548;2023-10-09T13:16:14;25.80;99.90
24085;DHT22;12268;52.110;5.548;2023-10-09T13:18:58;25.70;99.90
24085;DHT22;12268;52.110;5.548;2023-10-09T13:21:34;25.70;99.90
24085;DHT22;12268;52.110;5.548;2023-10-09T13:24:02;25.50;99.90
24085;DHT22;12268;52.110;5.548;2023-10-09T13:26:29;25.40;99.90
24085;DHT22;12268;52.110;5.548;2023-10-09T13:29:01;25.40;99.90
24085;DHT22;12268;52.110;5.548;2023-10-09T13:31:27;25.40;99.90
24085;DHT22;12268;52.110;5.548;2023-10-09T13:33:54;25.40;99.90
24085;DHT22;12268;52.110;5.548;2023-10-09T13:36:25;25.20;99.90
24085;DHT22;12268;52.110;5.548;2023-10-09T13:39:01;24.70;99.90
24085;DHT22;12268;52.110;5.548;2023-10-09T13:41:48;24.90;99.90
24085;DHT22;12268;52.110;5.548;2023-10-09T13:44:14;25.10;99.90
24085;DHT22;12268;52.110;5.548;2023-10-09T13:46:39;25.10;99.90
24085;DHT22;12268;52.110;5.548;2023-10-09T13:49:08;25.30;99.90
24085;DHT22;12268;52.110;5.548;2023-10-09T13:51:38;25.30;99.90
24085;DHT22;12268;52.110;5.548;2023-10-09T13:54:09;25.40;99.90
24085;DHT22;12268;52.110;5.548;2023-10-09T13:56:34;25.10;99.90
24085;DHT22;12268;52.110;5.548;2023-10-09T13:59:04;25.10;99.90
24085;DHT22;12268;52.110;5.548;2023-10-09T14:01:38;24.80;99.90
24085;DHT22;12268;52.110;5.548;2023-10-09T14:04:05;24.70;99.90
24085;DHT22;12268;52.110;5.548;2023-10-09T14:06:33;24.80;99.90
24085;DHT22;12268;52.110;5.548;2023-10-09T14:09:03;24.90;99.90
24085;DHT22;12268;52.110;5.548;2023-10-09T14:11:35;25.00;99.90
24085;DHT22;12268;52.110;5.548;2023-10-09T14:14:05;25.30;99.90
24085;DHT22;12268;52.110;5.548;2023-10-09T14:16:36;25.30;99.90
24085;DHT22;12268;52.110;5.548;2023-10-09T14:19:01;25.20;99.90
24085;DHT22;12268;52.110;5.548;2023-10-09T14:21:33;25.10;99.90
24085;DHT22;12268;52.110;5.548;2023-10-09T14:24:03;25.00;99.90
24085;DHT22;12268;52.110;5.548;2023-10-09T14:26:29;25.10;99.90
24085;DHT22;12268;52.110;5.548;2023-10-09T14:28:56;25.20;99.90
24085;DHT22;12268;52.110;5.548;2023-10-09T14:31:25;25.20;99.90
24085;DHT22;12268;52.110;5.548;2023-10-09T14:33:55;25.10;99.90
24085;DHT22;12268;52.110;5.548;2023-10-09T14:36:22;25.20;99.90
24085;DHT22;12268;52.110;5.548;2023-10-09T14:38:49;25.30;99.90
24085;DHT22;12268;52.110;5.548;2023-10-09T14:41:19;25.20;99.90
24085;DHT22;12268;52.110;5.548;2023-10-09T14:43:47;25.10;99.90
24085;DHT22;12268;52.110;5.548;2023-10-09T14:46:14;25.00;99.90
24085;DHT22;12268;52.110;5.548;2023-10-09T14:48:40;25.00;99.90
24085;DHT22;12268;52.110;5.548;2023-10-09T14:51:06;24.90;99.90
24085;DHT22;12268;52.110;5.548;2023-10-09T14:53:36;25.00;99.90
24085;DHT22;12268;52.110;5.548;2023-10-09T14:56:02;25.00;99.90
24085;DHT22;12268;52.110;5.548;2023-10-09T14:58:29;25.00;99.90
24085;DHT22;12268;52.110;5.548;2023-10-09T15:00:56;24.80;99.90
24085;DHT22;12268;52.110;5.548;2023-10-09T15:03:22;24.60;99.90
24085;DHT22;12268;52.110;5.548;2023-10-09T15:05:48;24.80;99.90
24085;DHT22;12268;52.110;5.548;2023-10-09T15:08:14;24.90;99.90
24085;DHT22;12268;52.110;5.548;2023-10-09T15:10:50;25.00;99.90
24085;DHT22;12268;52.110;5.548;2023-10-09T15:13:21;25.10;99.90
24085;DHT22;12268;52.110;5.548;2023-10-09T15:15:53;25.30;99.90
24085;DHT22;12268;52.110;5.548;2023-10-09T15:18:20;25.10;99.90
24085;DHT22;12268;52.110;5.548;2023-10-09T15:20:49;25.00;99.90
24085;DHT22;12268;52.110;5.548;2023-10-09T15:23:17;24.90;99.90
24085;DHT22;12268;52.110;5.548;2023-10-09T15:25:45;24.70;99.90
24085;DHT22;12268;52.110;5.548;2023-10-09T15:28:11;24.50;99.90
24085;DHT22;12268;52.110;5.548;2023-10-09T15:30:38;24.20;99.90
24085;DHT22;12268;52.110;5.548;2023-10-09T15:33:06;24.20;99.90
24085;DHT22;12268;52.110;5.548;2023-10-09T15:35:33;24.30;99.90
24085;DHT22;12268;52.110;5.548;2023-10-09T15:38:02;24.20;99.90
24085;DHT22;12268;52.110;5.548;2023-10-09T15:40:32;24.10;99.90
24085;DHT22;12268;52.110;5.548;2023-10-09T15:43:01;24.00;99.90
24085;DHT22;12268;52.110;5.548;2023-10-09T15:45:30;23.90;99.90
24085;DHT22;12268;52.110;5.548;2023-10-09T15:47:57;23.80;99.90
24085;DHT22;12268;52.110;5.548;2023-10-09T15:50:25;23.80;99.90
24085;DHT22;12268;52.110;5.548;2023-10-09T15:52:54;23.90;99.90
24085;DHT22;12268;52.110;5.548;2023-10-09T15:55:21;24.00;99.90
24085;DHT22;12268;52.110;5.548;2023-10-09T15:57:50;24.10;99.90
24085;DHT22;12268;52.110;5.548;2023-10-09T16:00:20;24.10;99.90
24085;DHT22;12268;52.110;5.548;2023-10-09T16:02:47;24.20;99.90
24085;DHT22;12268;52.110;5.548;2023-10-09T16:05:13;24.00;99.90
24085;DHT22;12268;52.110;5.548;2023-10-09T16:07:39;24.00;99.90
24085;DHT22;12268;52.110;5.548;2023-10-09T16:10:09;24.10;99.90
24085;DHT22;12268;52.110;5.548;2023-10-09T16:12:37;24.20;99.90
24085;DHT22;12268;52.110;5.548;2023-10-09T16:15:03;24.10;99.90
24085;DHT22;12268;52.110;5.548;2023-10-09T16:17:31;24.10;99.90
24085;DHT22;12268;52.110;5.548;2023-10-09T16:19:57;24.00;99.90
24085;DHT22;12268;52.110;5.548;2023-10-09T16:22:23;24.00;99.90